Time;durP1;ratioP1;P1;durP2;ratioP2;P2;SDS_P1;SDS_P2;PMS_P1;PMS_P2;Temp;Humidity;BMP_temperature;BMP_pressure;BME280_temperature;BME280_humidity;BME280_pressure;Samples;Min_cycle;Max_cycle;Signal;HPM_P1;HPM_P2
2023/10/04 00:01:30;;;;;;;10.95;8.05;;;;;;;15.61;100.00;98122.88;1224450;75;2917724;-71
2023/10/04 00:04:03;;;;;;;11.85;9.00;;;;;;;15.53;100.00;98135.63;1224999;75;2920695;-69
2023/10/04 00:06:36;;;;;;;14.05;10.10;;;;;;;15.40;100.00;98149.91;1222595;75;2929156;-74
2023/10/04 00:09:09;;;;;;;10.50;7.90;;;;;;;15.61;100.00;98150.47;1225080;75;2914623;-72
2023/10/04 00:11:42;;;;;;;13.75;10.70;;;;;;;15.62;100.00;98157.50;1199734;75;4911573;-68
2023/10/04 00:14:17;;;;;;;14.15;8.90;;;;;;;15.79;100.00;98152.03;1223353;75;2977096;-68
2023/10/04 00:16:50;;;;;;;13.15;9.45;;;;;;;15.91;100.00;98161.84;1221022;75;3042848;-71
2023/10/04 00:19:23;;;;;;;9.60;7.90;;;;;;;15.88;100.00;98162.09;1209185;75;3898681;-71
2023/10/04 00:21:57;;;;;;;10.40;8.05;;;;;;;15.94;100.00;98166.34;1225533;75;2915790;-69
2023/10/04 00:24:31;;;;;;;10.90;8.20;;;;;;;15.84;100.00;98156.81;1224053;75;2916665;-71
2023/10/04 00:27:04;;;;;;;9.00;7.35;;;;;;;16.00;100.00;98154.59;1201168;75;3858976;-71
2023/10/04 00:29:39;;;;;;;12.40;9.05;;;;;;;15.83;100.00;98165.59;1211952;75;3955533;-73
2023/10/04 00:32:12;;;;;;;17.40;10.40;;;;;;;15.71;100.00;98160.06;1225247;75;2928365;-69
2023/10/04 00:34:45;;;;;;;11.85;7.20;;;;;;;16.71;100.00;98154.31;1223468;75;2923117;-69
2023/10/04 00:37:18;;;;;;;8.90;5.50;;;;;;;17.31;100.00;98156.66;1222081;75;2954958;-69
2023/10/04 00:39:51;;;;;;;6.75;4.40;;;;;;;17.99;96.66;98155.06;1212335;75;3869473;-70
2023/10/04 00:42:23;;;;;;;6.65;3.10;;;;;;;18.09;96.40;98158.28;1225486;75;2924052;-69
2023/10/04 00:45:00;;;;;;;6.10;2.05;;;;;;;19.07;78.15;98157.66;1222601;75;2924492;-71
2023/10/04 00:47:34;;;;;;;3.05;1.60;;;;;;;19.04;78.63;98153.16;1224071;75;2941673;-70
2023/10/04 00:50:15;;;;;;;2.95;1.50;;;;;;;19.65;70.67;98162.75;1209679;75;3949348;-70
2023/10/04 00:52:57;;;;;;;2.00;1.00;;;;;;;19.73;69.66;98158.13;1221525;75;3011954;-70
2023/10/04 00:55:31;;;;;;;3.10;1.10;;;;;;;19.85;68.02;98160.75;1223746;75;2931924;-73
2023/10/04 00:58:06;;;;;;;2.05;1.20;;;;;;;20.08;66.26;98175.03;1224594;75;2931230;-72
2023/10/04 01:00:43;;;;;;;4.05;1.15;;;;;;;20.21;64.54;98164.72;1221671;75;2952792;-73
2023/10/04 01:03:20;;;;;;;2.50;1.10;;;;;;;20.20;63.70;98179.94;1223921;83;2936710;-73
2023/10/04 01:05:54;;;;;;;2.35;1.20;;;;;;;20.41;61.35;98168.97;1223369;75;2948978;-70
2023/10/04 01:08:28;;;;;;;3.00;0.90;;;;;;;20.50;61.07;98198.41;1224085;75;2937471;-68
2023/10/04 01:11:01;;;;;;;2.80;1.55;;;;;;;20.48;60.44;98189.84;1218597;75;3087401;-74
2023/10/04 01:13:34;;;;;;;4.10;1.30;;;;;;;20.61;59.53;98189.13;1224389;75;2921868;-72
2023/10/04 01:16:11;;;;;;;1.80;0.95;;;;;;;20.56;59.91;98215.03;1220068;75;3066568;-69
2023/10/04 01:18:44;;;;;;;2.05;1.10;;;;;;;20.57;59.59;98210.97;1224379;75;2932208;-70
2023/10/04 01:21:17;;;;;;;3.00;1.45;;;;;;;20.65;57.95;98203.50;1224099;75;2933833;-70
2023/10/04 01:23:52;;;;;;;2.40;1.40;;;;;;;20.69;57.86;98215.06;1222729;75;2927084;-72
2023/10/04 01:26:28;;;;;;;2.65;1.40;;;;;;;20.55;58.04;98221.84;1184371;75;5029995;-71
2023/10/04 01:29:03;;;;;;;3.50;1.50;;;;;;;20.61;57.93;98216.97;1222935;75;2950034;-73
2023/10/04 01:31:36;;;;;;;2.70;1.40;;;;;;;20.58;58.07;98216.00;1217371;75;3034243;-72
2023/10/04 01:34:13;;;;;;;3.95;1.55;;;;;;;20.52;57.30;98228.47;1223999;75;2920542;-71
2023/10/04 01:36:46;;;;;;;5.00;2.20;;;;;;;20.45;56.64;98231.88;1223936;75;2925301;-70
2023/10/04 01:39:25;;;;;;;3.10;1.60;;;;;;;20.49;56.67;98232.31;1221317;75;2953113;-72
2023/10/04 01:41:59;;;;;;;3.45;1.70;;;;;;;20.47;56.21;98243.19;1223978;75;2923723;-69
2023/10/04 01:44:31;;;;;;;4.50;1.90;;;;;;;20.41;56.59;98252.38;1224330;75;2930578;-70
2023/10/04 01:47:04;;;;;;;4.65;2.10;;;;;;;20.31;56.71;98247.75;1222367;75;2974692;-71
2023/10/04 01:49:37;;;;;;;4.45;1.95;;;;;;;20.29;56.25;98253.09;1223512;75;2925488;-70
2023/10/04 01:52:10;;;;;;;3.40;1.90;;;;;;;20.26;56.03;98245.81;1223439;75;2936012;-71
2023/10/04 01:54:45;;;;;;;3.85;1.65;;;;;;;20.15;56.51;98241.88;1223827;75;2926079;-70
2023/10/04 01:57:18;;;;;;;3.65;1.75;;;;;;;20.13;56.49;98227.03;1223704;75;2928189;-68
2023/10/04 01:59:53;;;;;;;8.70;2.00;;;;;;;19.99;57.03;98224.19;1223581;75;2925999;-74
2023/10/04 02:02:26;;;;;;;4.15;1.90;;;;;;;20.00;56.63;98224.94;1152691;75;8735820;-73
2023/10/04 02:05:01;;;;;;;3.10;1.80;;;;;;;19.95;57.06;98228.53;1197803;75;4892239;-73
2023/10/04 02:07:33;;;;;;;5.05;2.00;;;;;;;19.78;57.90;98231.56;1221295;75;3054486;-69
2023/10/04 02:10:13;;;;;;;3.30;1.90;;;;;;;19.83;57.27;98243.88;1223988;75;2935380;-73
2023/10/04 02:12:45;;;;;;;3.70;2.05;;;;;;;19.69;57.85;98238.22;1223183;75;2929541;-69
2023/10/04 02:15:19;;;;;;;3.60;2.10;;;;;;;19.65;58.05;98253.66;1224141;75;2924178;-72
2023/10/04 02:17:53;;;;;;;4.15;1.50;;;;;;;19.58;57.80;98241.88;1210794;75;3846877;-69
2023/10/04 02:20:28;;;;;;;3.80;1.85;;;;;;;19.53;58.25;98236.34;1224070;75;2932497;-73
2023/10/04 02:23:02;;;;;;;2.55;1.35;;;;;;;19.65;58.21;98239.75;1223954;75;2925099;-73
2023/10/04 02:25:37;;;;;;;3.30;1.60;;;;;;;19.56;58.23;98244.41;1222471;75;2953013;-69
2023/10/04 02:28:11;;;;;;;3.10;1.70;;;;;;;19.46;58.25;98248.81;1222893;75;2931621;-69
2023/10/04 02:30:45;;;;;;;4.10;1.50;;;;;;;19.44;58.59;98265.25;1224478;75;2914749;-68
2023/10/04 02:33:20;;;;;;;2.55;1.35;;;;;;;19.34;58.64;98237.09;1221790;75;2952953;-72
2023/10/04 02:35:52;;;;;;;2.65;1.45;;;;;;;19.14;59.25;98246.63;1221915;75;2975845;-71
2023/10/04 02:38:26;;;;;;;6.00;2.30;;;;;;;19.07;59.55;98246.44;1223076;75;2926423;-71
2023/10/04 02:41:05;;;;;;;3.55;1.70;;;;;;;18.98;60.18;98249.56;1220883;75;3105047;-69
2023/10/04 02:43:37;;;;;;;2.70;1.50;;;;;;;19.06;59.37;98244.97;1223545;75;2933242;-68
2023/10/04 02:46:11;;;;;;;2.65;1.30;;;;;;;19.03;59.57;98265.44;1224065;75;2937886;-69
2023/10/04 02:48:43;;;;;;;3.25;1.70;;;;;;;18.98;60.00;98252.34;1210260;75;4010888;-71
2023/10/04 02:51:16;;;;;;;2.75;1.50;;;;;;;18.88;59.32;98235.28;1224005;75;2922893;-75
2023/10/04 02:53:48;;;;;;;3.25;1.60;;;;;;;18.76;60.24;98222.75;1220418;75;3108175;-69
2023/10/04 02:56:24;;;;;;;4.25;1.60;;;;;;;18.92;59.78;98239.28;1223896;75;2933141;-74
2023/10/04 02:58:57;;;;;;;4.05;1.65;;;;;;;18.81;59.79;98235.84;1222639;75;2928593;-68
2023/10/04 03:01:30;;;;;;;3.80;1.60;;;;;;;18.82;59.73;98240.88;1224379;75;2925834;-71
2023/10/04 03:04:08;;;;;;;3.25;1.60;;;;;;;18.79;60.08;98243.94;1223974;75;2942608;-75
2023/10/04 03:06:41;;;;;;;5.50;1.80;;;;;;;18.70;59.70;98267.94;1198889;75;4822021;-76
2023/10/04 03:09:13;;;;;;;3.10;1.85;;;;;;;18.88;58.07;98265.78;1220631;75;3109447;-73
2023/10/04 03:11:49;;;;;;;2.30;1.30;;;;;;;18.95;59.08;98270.78;1223048;75;2922621;-70
2023/10/04 03:14:24;;;;;;;3.30;1.70;;;;;;;18.79;59.36;98266.88;1224449;75;2920733;-72
2023/10/04 03:17:10;;;;;;;3.80;1.90;;;;;;;18.80;58.90;98262.09;1224277;75;2918513;-69
2023/10/04 03:19:44;;;;;;;6.15;1.90;;;;;;;18.73;56.65;98268.91;1223603;75;2924405;-70
2023/10/04 03:22:22;;;;;;;3.95;1.95;;;;;;;18.79;55.39;98268.91;1223262;75;2936921;-73
2023/10/04 03:24:56;;;;;;;4.15;1.70;;;;;;;18.80;54.61;98270.41;1222360;75;2939489;-73
2023/10/04 03:27:33;;;;;;;2.55;1.60;;;;;;;18.80;54.62;98270.41;1223458;75;2939981;-72
2023/10/04 03:30:07;;;;;;;3.90;1.70;;;;;;;18.88;54.79;98272.13;1220098;75;3038063;-71
2023/10/04 03:32:40;;;;;;;2.90;1.65;;;;;;;18.85;54.53;98277.94;1224447;75;2929450;-71
2023/10/04 03:35:14;;;;;;;3.25;1.60;;;;;;;18.81;54.16;98278.22;1223592;75;2942496;-69
2023/10/04 03:37:54;;;;;;;2.75;1.70;;;;;;;18.82;53.85;98278.97;1223621;75;2931518;-70
2023/10/04 03:40:34;;;;;;;3.95;1.90;;;;;;;18.82;53.41;98276.94;1205581;75;4113228;-70
2023/10/04 03:43:11;;;;;;;3.00;1.70;;;;;;;18.81;53.57;98283.78;1224191;75;2932629;-71
2023/10/04 03:45:45;;;;;;;2.80;1.50;;;;;;;18.79;53.51;98283.53;1223872;75;2930338;-70
2023/10/04 03:48:18;;;;;;;2.85;1.50;;;;;;;18.78;54.37;98284.03;1221992;75;2962943;-69
2023/10/04 03:50:52;;;;;;;2.15;1.60;;;;;;;18.80;54.89;98287.81;1223829;75;2934609;-69
2023/10/04 03:53:26;;;;;;;3.25;1.65;;;;;;;18.78;54.08;98276.47;1225301;75;2907995;-70
2023/10/04 03:55:59;;;;;;;3.05;1.60;;;;;;;18.82;53.78;98290.81;1223605;75;2922534;-71
2023/10/04 03:58:36;;;;;;;2.60;1.30;;;;;;;18.90;53.49;98304.88;1224824;75;2923035;-70
2023/10/04 04:01:10;;;;;;;1.90;1.20;;;;;;;18.92;53.52;98316.94;1223880;75;2930227;-72
2023/10/04 04:03:44;;;;;;;2.00;1.20;;;;;;;18.88;54.14;98329.59;1224169;83;2933618;-71
2023/10/04 04:06:17;;;;;;;3.10;1.65;;;;;;;18.98;53.17;98325.25;1222125;75;2920662;-70
2023/10/04 04:08:49;;;;;;;4.95;1.45;;;;;;;18.94;52.96;98336.63;1221948;75;2962575;-75
2023/10/04 04:11:22;;;;;;;3.90;1.60;;;;;;;19.03;53.25;98354.97;1224218;75;2931838;-69
2023/10/04 04:13:58;;;;;;;3.25;1.35;;;;;;;19.05;52.69;98351.66;1223455;75;2923650;-69
2023/10/04 04:16:33;;;;;;;2.60;1.40;;;;;;;19.00;52.69;98352.47;1223988;75;2923280;-73
2023/10/04 04:19:08;;;;;;;5.25;1.55;;;;;;;18.91;52.15;98359.09;1207612;75;3869871;-72
2023/10/04 04:21:41;;;;;;;3.20;1.50;;;;;;;18.86;52.18;98352.31;1223190;75;2931229;-72
2023/10/04 04:24:14;;;;;;;3.05;1.60;;;;;;;18.86;52.05;98354.34;1224356;75;2930177;-70
2023/10/04 04:26:46;;;;;;;3.45;1.50;;;;;;;18.92;52.04;98358.56;1222965;75;3003148;-71
2023/10/04 04:29:22;;;;;;;2.75;1.55;;;;;;;18.89;52.20;98362.38;1224279;75;2922372;-71
2023/10/04 04:31:56;;;;;;;3.80;1.65;;;;;;;18.94;52.17;98369.91;1224816;75;2924806;-71
2023/10/04 04:34:29;;;;;;;3.30;2.10;;;;;;;18.94;52.01;98369.16;1222692;75;2920341;-74
2023/10/04 04:37:02;;;;;;;5.30;1.90;;;;;;;18.94;51.98;98375.47;1224413;75;2927925;-68
2023/10/04 04:39:40;;;;;;;3.35;1.50;;;;;;;18.94;52.76;98385.81;1223483;75;2932102;-68
2023/10/04 04:42:15;;;;;;;4.10;1.80;;;;;;;18.91;52.81;98392.41;1224314;75;2933193;-68
2023/10/04 04:44:53;;;;;;;3.80;1.40;;;;;;;18.78;53.36;98395.00;1222619;75;2924324;-70
2023/10/04 04:47:26;;;;;;;2.90;1.50;;;;;;;18.65;53.61;98390.75;1212345;75;3880449;-71
2023/10/04 04:49:59;;;;;;;5.35;1.70;;;;;;;18.45;54.62;98391.88;1224490;75;2935409;-72
2023/10/04 04:52:33;;;;;;;3.65;1.70;;;;;;;18.53;54.00;98395.59;1224537;75;2919616;-67
2023/10/04 04:55:07;;;;;;;5.30;2.20;;;;;;;18.39;55.13;98401.47;1220196;75;2962279;-72
2023/10/04 04:57:40;;;;;;;4.10;2.80;;;;;;;18.40;55.11;98400.19;1222339;75;3008632;-71
2023/10/04 05:03:03;;;;;;;4.00;1.90;;;;;;;18.23;56.10;98398.28;1224300;75;2918751;-70
2023/10/04 05:05:36;;;;;;;3.50;1.90;;;;;;;18.07;56.59;98410.91;1224271;75;2922131;-74
2023/10/04 05:08:09;;;;;;;9.00;4.80;;;;;;;18.05;57.21;98404.38;1222923;75;2922835;-71
2023/10/04 05:10:44;;;;;;;6.15;3.55;;;;;;;17.96;57.36;98413.72;1223124;75;2935468;-69
2023/10/04 05:13:17;;;;;;;5.75;3.70;;;;;;;18.00;57.20;98419.75;1223329;75;2922827;-68
2023/10/04 05:15:53;;;;;;;6.35;3.10;;;;;;;17.93;57.35;98427.84;1222084;75;2983798;-74
2023/10/04 05:18:26;;;;;;;8.55;2.70;;;;;;;18.06;56.47;98439.91;1208357;75;3841591;-74
2023/10/04 05:21:00;;;;;;;3.80;2.45;;;;;;;17.95;57.28;98436.41;1224530;75;2928526;-72
2023/10/04 05:23:34;;;;;;;2.60;1.40;;;;;;;17.87;57.43;98445.22;1225268;75;2923738;-71
2023/10/04 05:26:08;;;;;;;3.60;1.60;;;;;;;17.99;56.62;98450.72;1224749;75;2928205;-70
2023/10/04 05:28:41;;;;;;;1.50;0.90;;;;;;;18.02;57.79;98458.78;1224487;75;2924923;-75
2023/10/04 05:31:16;;;;;;;3.30;1.25;;;;;;;17.88;58.45;98470.91;1224812;83;2926813;-68
2023/10/04 05:33:49;;;;;;;2.50;1.15;;;;;;;17.87;57.83;98469.38;1223022;75;2929084;-70
2023/10/04 05:36:22;;;;;;;4.10;1.75;;;;;;;17.79;57.60;98474.66;1224775;75;2929008;-69
2023/10/04 05:38:55;;;;;;;6.25;1.65;;;;;;;17.83;58.02;98486.28;1224735;75;2917515;-69
2023/10/04 05:41:31;;;;;;;3.35;1.60;;;;;;;17.83;58.34;98486.28;1224429;75;2922032;-69
2023/10/04 05:44:03;;;;;;;3.00;1.50;;;;;;;17.84;58.49;98493.31;1222351;75;3047558;-68
2023/10/04 05:46:44;;;;;;;3.90;1.60;;;;;;;17.88;58.25;98488.28;1224663;75;2923924;-73
2023/10/04 05:49:17;;;;;;;3.60;1.90;;;;;;;17.89;58.04;98486.25;1222020;75;3052133;-67
2023/10/04 05:51:51;;;;;;;3.40;1.80;;;;;;;17.95;58.03;98498.09;1135792;75;9998215;-70
2023/10/04 05:54:23;;;;;;;5.10;1.80;;;;;;;17.98;58.56;98505.38;1224634;75;2956260;-69
2023/10/04 05:56:57;;;;;;;3.90;2.10;;;;;;;17.83;58.98;98505.66;1221071;75;3094054;-70
2023/10/04 05:59:31;;;;;;;3.20;1.70;;;;;;;17.93;58.74;98508.19;1224132;75;2938574;-69
2023/10/04 06:02:07;;;;;;;2.95;1.80;;;;;;;17.95;58.64;98516.75;1224038;75;2919336;-69
2023/10/04 06:04:42;;;;;;;5.55;2.10;;;;;;;17.91;58.46;98516.22;1223679;75;2931529;-66
2023/10/04 06:07:15;;;;;;;4.80;1.65;;;;;;;17.95;59.19;98516.75;1223322;75;2921881;-66
2023/10/04 06:09:47;;;;;;;2.95;1.90;;;;;;;17.94;58.79;98529.81;1223645;75;2930623;-70
2023/10/04 06:12:20;;;;;;;3.80;1.70;;;;;;;17.98;57.54;98524.03;1219989;75;3101521;-69
2023/10/04 06:14:53;;;;;;;3.80;2.20;;;;;;;17.93;58.04;98531.09;1224663;75;2928430;-70
2023/10/04 06:17:28;;;;;;;3.65;1.75;;;;;;;17.89;58.11;98541.66;1222884;75;2941841;-71
2023/10/04 06:20:01;;;;;;;3.75;1.80;;;;;;;17.95;57.53;98544.44;1224193;75;2932159;-73
2023/10/04 06:22:35;;;;;;;3.15;1.70;;;;;;;17.81;58.29;98549.72;1224771;75;2947173;-70
2023/10/04 06:25:11;;;;;;;3.35;1.75;;;;;;;17.90;57.53;98548.72;1223551;75;2936108;-73
2023/10/04 06:27:43;;;;;;;14.85;7.65;;;;;;;17.95;57.82;98559.03;1224507;75;2925622;-68
2023/10/04 06:30:20;;;;;;;10.40;3.85;;;;;;;18.94;55.20;98555.81;1224551;75;2927248;-73
2023/10/04 06:32:57;;;;;;;4.90;2.05;;;;;;;18.90;55.06;98568.44;1224616;75;2925714;-69
2023/10/04 06:35:32;;;;;;;2.65;1.55;;;;;;;21.19;51.07;98567.06;1216767;75;3226072;-72
2023/10/04 06:38:15;;;;;;;2.50;1.40;;;;;;;21.23;50.45;98583.44;1216375;75;3147199;-74
2023/10/04 06:41:01;;;;;;;2.80;1.50;;;;;;;23.23;47.17;98584.66;884462;75;16989722;-71
2023/10/04 06:43:37;;;;;;;1.95;1.30;;;;;;;25.31;43.66;98589.13;1146821;75;5635240;-68
2023/10/04 06:46:40;;;;;;;2.50;1.58;;;;;;;25.59;42.08;98599.47;1044232;75;8704969;-67
2023/10/04 06:49:19;;;;;;;3.15;1.85;;;;;;;25.44;45.06;98603.72;1131595;75;5684475;-69
2023/10/04 06:51:54;;;;;;;;;;;;;;;25.48;45.59;98615.34;1141496;75;8253878;-75
2023/10/04 06:54:36;;;;;;;5.63;2.50;;;;;;;24.93;46.73;98628.91;1018519;75;11890501;-72
2023/10/04 06:57:09;;;;;;;7.35;2.15;;;;;;;22.47;50.93;98624.19;1191979;75;5253257;-71
2023/10/04 06:59:41;;;;;;;3.30;1.85;;;;;;;22.15;51.23;98631.78;1222937;75;2926047;-70
2023/10/04 07:02:14;;;;;;;4.15;1.55;;;;;;;22.34;50.70;98635.28;1223389;75;2958913;-66
2023/10/04 07:04:49;;;;;;;4.65;2.20;;;;;;;22.42;50.04;98641.03;1223683;75;2927601;-68
2023/10/04 07:07:22;;;;;;;3.60;2.00;;;;;;;20.89;53.09;98645.09;1223966;75;2927639;-69
2023/10/04 07:09:57;;;;;;;4.35;1.80;;;;;;;21.19;54.05;98653.38;1221451;75;2945123;-68
2023/10/04 07:12:31;;;;;;;3.00;1.50;;;;;;;20.93;54.93;98651.13;1223105;67;2931063;-75
2023/10/04 07:15:04;;;;;;;5.05;2.40;;;;;;;20.93;55.39;98653.91;1218937;75;3046348;-70
2023/10/04 07:17:36;;;;;;;5.05;1.75;;;;;;;20.32;56.07;98655.22;1220757;75;2928451;-74
2023/10/04 07:20:16;;;;;;;4.10;2.05;;;;;;;20.77;55.99;98654.84;1221264;75;2923093;-69
2023/10/04 07:22:58;;;;;;;2.85;1.70;;;;;;;21.16;55.91;98659.97;1222536;75;2928965;-68
2023/10/04 07:25:32;;;;;;;2.95;1.30;;;;;;;22.03;55.35;98664.66;1220711;75;2991757;-70
2023/10/04 07:28:09;;;;;;;5.05;1.70;;;;;;;21.31;58.10;98667.16;1220826;75;2917100;-70
2023/10/04 07:30:43;;;;;;;3.75;1.60;;;;;;;21.78;57.92;98669.63;1220839;75;2945810;-73
2023/10/04 07:33:16;;;;;;;3.10;1.65;;;;;;;22.20;58.48;98673.59;1221181;75;2931241;-73
2023/10/04 07:35:51;;;;;;;3.05;1.70;;;;;;;21.14;60.42;98672.91;1223283;75;2925323;-69
2023/10/04 07:38:24;;;;;;;3.60;1.90;;;;;;;20.68;63.34;98686.53;1221460;83;3054071;-67
2023/10/04 07:40:57;;;;;;;3.50;1.90;;;;;;;20.65;64.53;98682.03;1220375;75;2965796;-70
2023/10/04 07:43:29;;;;;;;3.50;1.80;;;;;;;20.70;65.67;98686.78;1221026;75;2927878;-71
2023/10/04 07:46:03;;;;;;;3.75;2.45;;;;;;;19.55;67.74;98698.41;1222551;75;2925175;-71
2023/10/04 07:48:36;;;;;;;8.65;4.80;;;;;;;19.65;68.88;98696.09;1220697;75;2973039;-70
2023/10/04 07:51:12;;;;;;;4.45;2.60;;;;;;;19.54;70.96;98710.00;1204060;75;4037004;-69
2023/10/04 07:53:45;;;;;;;3.80;2.30;;;;;;;19.36;72.77;98711.34;1221934;75;2928629;-73
2023/10/04 07:56:19;;;;;;;5.80;3.15;;;;;;;19.35;74.74;98709.84;1221626;75;2932367;-70
2023/10/04 07:58:52;;;;;;;5.45;3.60;;;;;;;19.47;76.43;98702.97;1221424;75;2947188;-69
2023/10/04 08:01:24;;;;;;;5.75;3.90;;;;;;;20.38;72.88;98712.31;1221941;75;2927969;-66
2023/10/04 08:03:58;;;;;;;7.35;4.10;;;;;;;25.00;57.22;98712.97;1221721;75;2926342;-69
2023/10/04 08:06:33;;;;;;;10.00;4.40;;;;;;;21.37;66.98;98709.63;1221178;75;2921000;-76
2023/10/04 08:09:07;;;;;;;7.20;4.55;;;;;;;20.22;75.22;98713.19;1217517;75;3047765;-76
2023/10/04 08:11:40;;;;;;;8.80;4.75;;;;;;;19.99;77.55;98712.59;1221940;75;2935693;-67
2023/10/04 08:14:13;;;;;;;8.20;5.25;;;;;;;19.39;81.00;98726.25;1221735;75;2938342;-69
2023/10/04 08:16:46;;;;;;;7.50;5.15;;;;;;;19.41;81.24;98713.34;1223031;75;2925344;-73
2023/10/04 08:19:19;;;;;;;6.40;4.20;;;;;;;22.22;70.23;98718.41;1210321;75;3789966;-70
2023/10/04 08:21:54;;;;;;;8.70;5.20;;;;;;;23.99;61.08;98712.63;1222630;75;2923658;-69
2023/10/04 08:24:27;;;;;;;8.65;5.35;;;;;;;20.85;69.50;98712.19;1220780;75;2927213;-71
2023/10/04 08:26:59;;;;;;;9.75;5.00;;;;;;;20.91;71.75;98716.97;1208740;75;3889899;-74
2023/10/04 08:29:34;;;;;;;8.60;5.10;;;;;;;20.77;72.78;98710.50;1222448;75;2930612;-70
2023/10/04 08:32:07;;;;;;;8.00;5.10;;;;;;;20.28;76.21;98711.13;1222118;75;2922264;-71
2023/10/04 08:34:42;;;;;;;8.45;5.50;;;;;;;20.69;74.40;98715.16;1221025;75;2933941;-74
2023/10/04 08:37:17;;;;;;;8.95;5.20;;;;;;;21.32;71.47;98713.97;1222966;75;2931866;-72
2023/10/04 08:39:50;;;;;;;7.20;4.60;;;;;;;22.80;66.29;98711.41;1219596;75;3034085;-69
2023/10/04 08:42:23;;;;;;;8.60;4.65;;;;;;;22.60;66.33;98717.56;1224228;75;2926607;-68
2023/10/04 08:44:57;;;;;;;7.95;5.15;;;;;;;23.19;64.94;98715.53;1224206;75;2921023;-73
2023/10/04 08:47:30;;;;;;;8.65;5.10;;;;;;;22.47;65.90;98719.03;1222056;75;2984423;-70
2023/10/04 08:50:11;;;;;;;7.90;5.10;;;;;;;21.45;69.37;98725.25;1225697;75;2920909;-73
2023/10/04 08:52:49;;;;;;;8.05;5.20;;;;;;;20.78;73.41;98728.69;1224743;75;2922035;-70
2023/10/04 08:55:24;;;;;;;8.60;5.50;;;;;;;20.88;76.90;98738.25;1221082;75;3021415;-68
2023/10/04 08:57:57;;;;;;;7.90;5.05;;;;;;;21.61;72.70;98734.69;1220655;75;3094515;-71
2023/10/04 09:00:32;;;;;;;9.00;4.85;;;;;;;21.45;74.26;98730.84;1224017;75;2940905;-70
2023/10/04 09:03:08;;;;;;;7.55;5.05;;;;;;;21.06;74.91;98739.56;1224211;75;2921831;-70
2023/10/04 09:05:46;;;;;;;6.05;4.20;;;;;;;21.85;71.28;98741.47;1223921;75;2922981;-72
2023/10/04 09:08:22;;;;;;;7.60;4.90;;;;;;;21.53;70.80;98742.13;1225110;75;2921938;-71
2023/10/04 09:10:56;;;;;;;7.65;5.00;;;;;;;21.62;71.64;98738.22;1222331;75;2995366;-68
2023/10/04 09:13:29;;;;;;;7.30;4.50;;;;;;;21.68;70.12;98731.31;1224296;75;2936383;-70
2023/10/04 09:16:19;;;;;;;5.80;3.85;;;;;;;22.68;67.80;98737.97;1220296;75;2992538;-68
2023/10/04 09:18:52;;;;;;;8.05;4.05;;;;;;;21.92;67.75;98733.25;1209311;75;4067891;-69
2023/10/04 09:21:24;;;;;;;7.15;4.15;;;;;;;21.25;70.49;98737.59;1222376;75;2989311;-68
2023/10/04 09:24:10;;;;;;;8.40;4.55;;;;;;;21.78;68.59;98737.25;1224765;75;2918408;-67
2023/10/04 09:26:54;;;;;;;7.75;4.70;;;;;;;21.63;67.67;98734.91;1223482;75;2925589;-70
2023/10/04 09:29:35;;;;;;;6.25;3.85;;;;;;;21.83;66.53;98736.41;1224744;75;2926349;-68
2023/10/04 09:32:09;;;;;;;8.05;4.10;;;;;;;20.77;69.63;98729.97;1222328;75;2941635;-71
2023/10/04 09:34:42;;;;;;;7.30;3.40;;;;;;;21.61;68.28;98745.06;1150683;75;8873094;-69
2023/10/04 09:37:23;;;;;;;8.30;3.85;;;;;;;21.23;69.07;98750.53;1225122;75;2924943;-71
2023/10/04 09:40:12;;;;;;;6.30;4.30;;;;;;;21.09;70.75;98748.91;1224667;75;2943695;-69
2023/10/04 09:42:52;;;;;;;6.45;3.70;;;;;;;20.98;71.21;98747.75;1224516;75;2918996;-68
2023/10/04 09:45:26;;;;;;;4.40;3.40;;;;;;;21.17;69.88;98741.50;1222145;75;3031751;-71
2023/10/04 09:48:03;;;;;;;6.65;4.00;;;;;;;21.36;69.88;98745.09;1223895;75;2930453;-68
2023/10/04 09:50:35;;;;;;;6.60;3.75;;;;;;;21.14;70.65;98750.88;1210811;75;3941530;-68
2023/10/04 09:53:08;;;;;;;6.90;3.55;;;;;;;20.55;71.26;98753.16;1222780;75;2927043;-68
2023/10/04 09:55:44;;;;;;;6.00;4.00;;;;;;;20.53;70.25;98756.44;1223237;75;2923336;-71
2023/10/04 09:58:18;;;;;;;6.20;3.15;;;;;;;20.74;71.07;98753.28;1224385;75;2920852;-67
2023/10/04 10:00:51;;;;;;;7.05;3.95;;;;;;;20.28;71.00;98758.41;1224143;75;2924933;-71
2023/10/04 10:03:29;;;;;;;6.55;3.50;;;;;;;20.57;70.79;98734.72;1225257;75;2920988;-69
2023/10/04 10:06:02;;;;;;;10.20;3.80;;;;;;;20.61;71.12;98743.53;1223977;75;2938232;-70
2023/10/04 10:08:41;;;;;;;5.70;2.90;;;;;;;20.80;68.17;98751.19;1224340;75;2944638;-69
2023/10/04 10:11:17;;;;;;;4.30;2.60;;;;;;;20.74;67.41;98761.63;1225044;75;2925193;-70
2023/10/04 10:13:52;;;;;;;5.10;2.75;;;;;;;20.55;65.79;98755.94;1221509;75;2972095;-70
2023/10/04 10:16:26;;;;;;;5.90;3.20;;;;;;;20.75;65.73;98749.97;1224507;75;2921122;-72
2023/10/04 10:18:59;;;;;;;3.80;2.60;;;;;;;20.51;66.01;98749.91;1224702;75;2928034;-69
2023/10/04 10:22:10;;;;;;;3.80;2.20;;;;;;;20.39;65.07;98754.78;1223856;75;2911620;-71
2023/10/04 10:24:48;;;;;;;6.40;2.60;;;;;;;20.39;65.30;98749.22;1224921;75;2933468;-70
2023/10/04 10:27:28;;;;;;;4.50;2.80;;;;;;;21.02;64.19;98745.44;1224333;75;2915506;-70
2023/10/04 10:30:03;;;;;;;6.25;3.15;;;;;;;20.48;65.80;98748.16;1224580;75;2927406;-74
2023/10/04 10:32:36;;;;;;;3.80;2.10;;;;;;;20.34;65.75;98756.31;1224367;75;2927060;-72
2023/10/04 10:35:12;;;;;;;5.65;2.50;;;;;;;20.31;65.16;98771.28;1217888;75;3097682;-71
2023/10/04 10:37:48;;;;;;;3.40;2.40;;;;;;;20.30;65.30;98766.22;1222037;75;2968466;-68
2023/10/04 10:40:37;;;;;;;4.25;2.45;;;;;;;19.95;66.42;98768.44;1210402;75;3936550;-71
2023/10/04 10:43:14;;;;;;;6.85;2.70;;;;;;;19.82;66.56;98767.50;1223712;75;2953153;-73
2023/10/04 10:45:47;;;;;;;4.65;2.45;;;;;;;20.28;65.10;98766.75;1223779;75;2926116;-71
2023/10/04 10:48:19;;;;;;;3.70;2.60;;;;;;;20.27;64.49;98775.59;1222153;75;3009390;-75
2023/10/04 10:50:52;;;;;;;3.30;2.00;;;;;;;20.52;64.53;98768.13;1224777;75;2929635;-69
2023/10/04 10:53:25;;;;;;;3.75;2.55;;;;;;;20.89;63.92;98761.25;1221939;75;3034641;-74
2023/10/04 10:55:59;;;;;;;3.85;2.10;;;;;;;20.91;63.38;98758.72;1224849;75;2933042;-69
2023/10/04 10:58:35;;;;;;;4.15;2.30;;;;;;;20.88;63.42;98752.16;1224326;75;2946531;-69
2023/10/04 11:01:10;;;;;;;5.20;2.80;;;;;;;20.56;63.25;98758.22;1224852;75;2929325;-68
2023/10/04 11:03:46;;;;;;;3.25;2.05;;;;;;;20.77;64.76;98766.91;1221929;75;3014269;-74
2023/10/04 11:06:20;;;;;;;8.90;2.95;;;;;;;20.70;63.54;98763.94;1224853;75;2922061;-69
2023/10/04 11:08:55;;;;;;;4.60;2.25;;;;;;;20.75;62.64;98765.91;1223272;75;2931989;-71
2023/10/04 11:11:29;;;;;;;7.25;2.50;;;;;;;20.41;63.90;98764.13;1223116;75;2930225;-70
2023/10/04 11:14:09;;;;;;;4.95;2.40;;;;;;;20.78;63.91;98762.09;1224003;75;2926904;-70
2023/10/04 11:16:41;;;;;;;3.80;2.10;;;;;;;20.98;64.16;98770.03;1224083;75;2922840;-74
2023/10/04 11:19:15;;;;;;;3.10;2.05;;;;;;;21.11;64.07;98763.06;1225056;75;2922046;-70
2023/10/04 11:21:49;;;;;;;5.85;2.70;;;;;;;20.34;66.21;98775.78;1223819;75;2919379;-74
2023/10/04 11:24:23;;;;;;;3.90;2.40;;;;;;;20.12;66.89;98775.94;1218189;75;3108101;-71
2023/10/04 11:26:57;;;;;;;10.15;2.55;;;;;;;19.94;67.19;98782.84;1223179;75;2923641;-73
2023/10/04 11:29:34;;;;;;;5.25;2.50;;;;;;;19.99;67.40;98780.06;1221354;75;3010967;-70
2023/10/04 11:32:09;;;;;;;6.15;2.35;;;;;;;19.71;67.63;98777.41;1224897;75;2923058;-71
2023/10/04 11:34:46;;;;;;;6.30;2.65;;;;;;;19.46;68.59;98768.13;1223570;75;2924522;-69
2023/10/04 11:37:20;;;;;;;4.10;2.60;;;;;;;19.59;67.76;98767.56;1221832;75;3009119;-71
2023/10/04 11:39:53;;;;;;;3.60;2.25;;;;;;;19.75;67.94;98783.44;1224422;75;2931484;-68
2023/10/04 11:42:27;;;;;;;3.65;2.20;;;;;;;19.60;68.85;98782.94;1224617;75;2936960;-68
2023/10/04 11:45:02;;;;;;;3.80;2.15;;;;;;;19.41;69.52;98771.69;1224466;75;2928702;-69
2023/10/04 11:47:35;;;;;;;3.50;1.75;;;;;;;19.42;70.13;98764.84;1217903;75;3108715;-67
2023/10/04 11:50:10;;;;;;;4.15;2.40;;;;;;;19.23;71.10;98761.09;1223428;75;2924824;-67
2023/10/04 11:52:48;;;;;;;4.20;2.10;;;;;;;19.24;70.37;98759.84;1223396;75;2929761;-69
2023/10/04 11:55:30;;;;;;;;;;;;;;;19.38;71.70;98767.13;1224448;75;2944598;-71